createdAt,value
2018-11-22T09:00:15.523Z,778
2018-11-22T09:00:31.822Z,912
2018-11-22T09:00:48.113Z,817
2018-11-22T09:01:04.415Z,660
2018-11-22T09:01:20.736Z,723
2018-11-22T09:01:37.041Z,695
2018-11-22T09:01:53.327Z,619
2018-11-22T09:02:09.649Z,716
2018-11-22T09:02:25.981Z,639
2018-11-22T09:02:46.713Z,658
2018-11-22T09:03:03.493Z,656
2018-11-22T09:03:20.139Z,661
2018-11-22T09:03:36.821Z,659
2018-11-22T09:03:53.474Z,657
2018-11-22T09:04:10.142Z,669
2018-11-22T09:04:42.889Z,652
2018-11-22T09:04:59.609Z,642
2018-11-22T09:05:16.269Z,637
2018-11-22T09:05:32.970Z,650
2018-11-22T09:05:49.603Z,640
2018-11-22T09:06:06.275Z,639
2018-11-22T09:06:22.999Z,642
2018-11-22T09:06:39.664Z,635
2018-11-22T09:06:56.336Z,671
2018-11-22T09:07:13.069Z,662
2018-11-22T09:07:29.754Z,649
2018-11-22T09:07:46.500Z,665
2018-11-22T09:08:03.345Z,661
2018-11-22T09:08:20.003Z,649
2018-11-22T09:08:36.709Z,646
2018-11-22T09:08:53.351Z,643
2018-11-22T09:09:09.981Z,648
2018-11-22T09:09:26.655Z,646
2018-11-22T09:09:43.335Z,660
2018-11-22T09:10:03.951Z,664
2018-11-22T09:10:20.586Z,656
2018-11-22T09:10:37.296Z,655
2018-11-22T09:10:53.941Z,662
2018-11-22T09:11:10.591Z,654
2018-11-22T09:11:27.280Z,652
2018-11-22T09:11:43.938Z,652
2018-11-22T09:12:00.570Z,650
2018-11-22T09:12:17.209Z,653
2018-11-22T09:12:33.868Z,657
2018-11-22T09:12:50.559Z,652
2018-11-22T09:13:07.229Z,658
2018-11-22T09:13:23.898Z,664
2018-11-22T09:13:40.611Z,661
2018-11-22T09:13:57.254Z,681
2018-11-22T09:14:13.885Z,674
2018-11-22T09:14:30.560Z,671
2018-11-22T09:14:47.242Z,664
2018-11-22T09:15:03.989Z,664
2018-11-22T09:15:20.699Z,665
2018-11-22T09:15:37.348Z,667
2018-11-22T09:15:54.001Z,661
2018-11-22T09:16:10.697Z,677
2018-11-22T09:16:27.359Z,672
2018-11-22T09:16:44.012Z,663
2018-11-22T09:17:00.774Z,660
2018-11-22T09:17:17.535Z,668
2018-11-22T09:17:34.206Z,664
2018-11-22T09:17:50.887Z,648
2018-11-22T09:18:07.530Z,652
2018-11-22T09:18:24.244Z,647
2018-11-22T09:18:40.918Z,672
2018-11-22T09:18:57.555Z,664
2018-11-22T09:19:14.185Z,648
2018-11-22T09:19:30.918Z,642
2018-11-22T09:19:47.522Z,643
2018-11-22T09:20:04.240Z,639
2018-11-22T09:20:20.924Z,651
2018-11-22T09:20:37.604Z,640
2018-11-22T09:20:54.257Z,647
2018-11-22T09:21:10.902Z,643
2018-11-22T09:21:27.592Z,653
2018-11-22T09:21:44.242Z,653
2018-11-22T09:22:00.956Z,646
2018-11-22T09:22:17.554Z,649
2018-11-22T09:22:34.294Z,647
2018-11-22T09:22:50.968Z,645
2018-11-22T09:23:07.587Z,648
2018-11-22T09:23:24.247Z,652
2018-11-22T09:23:40.948Z,653
2018-11-22T09:23:57.635Z,734
2018-11-22T09:24:14.275Z,693
2018-11-22T09:24:30.960Z,673
2018-11-22T09:24:47.603Z,658
2018-11-22T09:25:04.246Z,645
2018-11-22T09:25:20.895Z,657
2018-11-22T09:25:37.569Z,660
2018-11-22T09:25:54.343Z,663
2018-11-22T09:26:11.084Z,666
2018-11-22T09:26:27.730Z,668
2018-11-22T09:26:44.435Z,662
2018-11-22T09:27:01.102Z,665
2018-11-22T09:27:17.755Z,669
2018-11-22T09:27:34.457Z,674
2018-11-22T09:27:51.084Z,666
2018-11-22T09:28:07.786Z,674
2018-11-22T09:28:24.424Z,681
2018-11-22T09:28:41.132Z,673
2018-11-22T09:28:57.839Z,671
2018-11-22T09:29:14.492Z,667
2018-11-22T09:29:31.121Z,675
2018-11-22T09:29:47.844Z,675
2018-11-22T09:30:04.511Z,696
2018-11-22T09:30:21.199Z,703
2018-11-22T09:30:37.861Z,707
2018-11-22T09:30:54.538Z,709
2018-11-22T09:31:11.227Z,713
2018-11-22T09:31:27.889Z,707
2018-11-22T09:31:44.556Z,711
2018-11-22T09:32:01.277Z,716
2018-11-22T09:32:17.923Z,698
2018-11-22T09:32:34.598Z,699
2018-11-22T09:32:51.234Z,723
2018-11-22T09:33:07.954Z,741
2018-11-22T09:33:24.619Z,723
2018-11-22T09:33:41.273Z,738
2018-11-22T09:33:57.953Z,751
2018-11-22T09:34:14.778Z,738
2018-11-22T09:34:31.395Z,739
2018-11-22T09:34:48.089Z,736
2018-11-22T09:35:05.124Z,728
2018-11-22T09:35:23.220Z,736
2018-11-22T09:35:40.190Z,737
2018-11-22T09:35:56.447Z,738
2018-11-22T09:36:12.795Z,731
2018-11-22T09:36:29.302Z,726
2018-11-22T09:36:46.004Z,732
2018-11-22T09:37:02.670Z,731
2018-11-22T09:37:19.342Z,737
2018-11-22T09:37:35.996Z,737
2018-11-22T09:37:52.737Z,698
2018-11-22T09:38:09.440Z,701
2018-11-22T09:38:26.087Z,719
2018-11-22T09:38:42.743Z,764
2018-11-22T09:38:59.392Z,752
2018-11-22T09:39:16.087Z,725
2018-11-22T09:39:32.738Z,738
2018-11-22T09:39:49.408Z,734
2018-11-22T09:40:06.088Z,718
2018-11-22T09:40:22.753Z,718
2018-11-22T09:40:39.409Z,718
2018-11-22T09:40:56.097Z,856
2018-11-22T09:41:12.802Z,792
2018-11-22T09:41:29.440Z,785
2018-11-22T09:41:46.135Z,769
2018-11-22T09:42:03.224Z,683
2018-11-22T09:42:21.297Z,672
2018-11-22T09:42:38.294Z,657
2018-11-22T09:42:54.551Z,650
2018-11-22T09:43:10.867Z,649
2018-11-22T09:43:27.434Z,650
2018-11-22T09:43:44.094Z,648
2018-11-22T09:44:00.809Z,648
2018-11-22T09:44:17.497Z,652
2018-11-22T09:44:34.140Z,655
2018-11-22T09:44:50.817Z,665
2018-11-22T09:45:07.474Z,670
2018-11-22T09:45:24.187Z,678
2018-11-22T09:45:40.758Z,677
2018-11-22T09:45:57.569Z,680
2018-11-22T09:46:14.176Z,682
2018-11-22T09:46:30.890Z,688
2018-11-22T09:46:47.529Z,925
2018-11-22T09:47:04.216Z,1218
2018-11-22T09:47:20.889Z,1156
2018-11-22T09:47:37.740Z,1522
2018-11-22T09:47:54.431Z,1582
2018-11-22T09:48:11.139Z,1242
2018-11-22T09:48:28.249Z,1465
2018-11-22T09:48:46.186Z,1419
2018-11-22T09:49:03.052Z,1530
2018-11-22T09:49:19.328Z,1036
2018-11-22T09:49:35.762Z,1201
2018-11-22T09:49:52.421Z,980
2018-11-22T09:50:09.148Z,813
2018-11-22T09:50:25.832Z,863
2018-11-22T09:50:42.667Z,975
2018-11-22T09:50:59.341Z,1350
2018-11-22T09:51:16.020Z,1100
2018-11-22T09:51:32.669Z,849
2018-11-22T09:51:49.303Z,823
2018-11-22T09:52:05.955Z,918
2018-11-22T09:52:22.580Z,975
2018-11-22T09:52:39.231Z,1457
2018-11-22T09:52:55.864Z,1358
2018-11-22T09:53:12.515Z,1281
2018-11-22T09:53:29.290Z,1201
2018-11-22T09:53:45.877Z,1106
2018-11-22T09:54:02.597Z,986
2018-11-22T09:54:19.204Z,844
2018-11-22T09:54:35.907Z,851
2018-11-22T09:54:52.531Z,1010
2018-11-22T09:55:09.174Z,942
2018-11-22T09:55:25.811Z,891
2018-11-22T09:55:42.445Z,822
2018-11-22T09:55:59.065Z,831
2018-11-22T09:56:15.785Z,909
2018-11-22T09:56:32.416Z,950
2018-11-22T09:56:49.089Z,921
2018-11-22T09:57:05.753Z,923
2018-11-22T09:57:22.379Z,889
2018-11-22T09:57:39.068Z,877
2018-11-22T09:57:55.821Z,891
2018-11-22T09:58:12.418Z,891
2018-11-22T09:58:29.102Z,895
2018-11-22T09:58:45.699Z,945
2018-11-22T09:59:03.124Z,930
2018-11-22T09:59:21.140Z,904
2018-11-22T09:59:37.960Z,886
2018-11-22T09:59:54.649Z,872
2018-11-22T10:00:11.305Z,868
2018-11-22T10:00:28.035Z,874
2018-11-22T10:00:44.724Z,876
2018-11-22T10:01:01.451Z,867
2018-11-22T10:01:18.126Z,881
2018-11-22T10:01:34.808Z,888
2018-11-22T10:01:51.487Z,883
2018-11-22T10:02:08.226Z,878
2018-11-22T10:02:25.090Z,879
2018-11-22T10:02:41.728Z,881
2018-11-22T10:02:59.387Z,881
2018-11-22T10:03:17.290Z,969
2018-11-22T10:03:33.839Z,927
2018-11-22T10:03:50.589Z,909
2018-11-22T10:04:07.182Z,871
2018-11-22T10:04:23.845Z,887
2018-11-22T10:04:41.502Z,918
2018-11-22T10:05:01.337Z,937
2018-11-22T10:05:20.040Z,929
2018-11-22T10:05:37.792Z,922
2018-11-22T10:05:54.859Z,965
2018-11-22T10:06:11.803Z,1003
2018-11-22T10:06:28.091Z,1003
2018-11-22T10:06:44.398Z,940
2018-11-22T10:07:00.929Z,920
2018-11-22T10:07:17.606Z,893
2018-11-22T10:07:34.348Z,895
2018-11-22T10:07:50.987Z,901
2018-11-22T10:08:07.663Z,896
2018-11-22T10:08:24.866Z,903
2018-11-22T10:08:42.838Z,893
2018-11-22T10:08:59.743Z,979
2018-11-22T10:09:16.879Z,963
2018-11-22T10:09:33.586Z,943
2018-11-22T10:09:49.895Z,926
2018-11-22T10:10:06.534Z,923
2018-11-22T10:10:23.208Z,929
2018-11-22T10:10:39.859Z,932
2018-11-22T10:10:56.510Z,928
2018-11-22T10:11:13.240Z,928
2018-11-22T10:11:29.926Z,924
2018-11-22T10:11:46.619Z,921
2018-11-22T10:12:03.305Z,923
2018-11-22T10:12:20.652Z,925
2018-11-22T10:12:39.087Z,922
2018-11-22T10:12:55.904Z,922
2018-11-22T10:13:12.175Z,924
2018-11-22T10:13:28.529Z,919
2018-11-22T10:13:45.048Z,916
2018-11-22T10:14:01.778Z,912
2018-11-22T10:14:18.520Z,911
2018-11-22T10:14:35.113Z,899
2018-11-22T10:14:51.820Z,904
2018-11-22T10:15:08.517Z,902
2018-11-22T10:15:25.183Z,902
2018-11-22T10:15:41.831Z,898
2018-11-22T10:15:58.503Z,1027
2018-11-22T10:16:15.252Z,1484
2018-11-22T10:16:31.847Z,1166
2018-11-22T10:16:48.622Z,1179
2018-11-22T10:17:06.763Z,1161
2018-11-22T10:17:23.550Z,994
2018-11-22T10:17:39.817Z,978
2018-11-22T10:17:56.185Z,927
2018-11-22T10:18:12.817Z,954
2018-11-22T10:18:30.352Z,1036
2018-11-22T10:18:47.757Z,1072
2018-11-22T10:19:04.463Z,989
2018-11-22T10:19:21.250Z,958
2018-11-22T10:19:37.948Z,938
2018-11-22T10:19:54.705Z,932
2018-11-22T10:20:11.380Z,925
2018-11-22T10:20:28.054Z,920
2018-11-22T10:20:44.761Z,915
2018-11-22T10:21:01.471Z,912
2018-11-22T10:21:18.106Z,915
2018-11-22T10:21:34.851Z,910
2018-11-22T10:21:51.546Z,903
2018-11-22T10:22:08.248Z,905
2018-11-22T10:22:25.752Z,906
2018-11-22T10:22:42.886Z,904
2018-11-22T10:22:59.556Z,911
2018-11-22T10:23:16.197Z,911
2018-11-22T10:23:32.964Z,916
2018-11-22T10:23:51.349Z,910
2018-11-22T10:24:08.323Z,917
2018-11-22T10:24:26.518Z,912
2018-11-22T10:24:43.406Z,929
2018-11-22T10:24:59.695Z,954
2018-11-22T10:25:16.128Z,950
2018-11-22T10:25:32.835Z,943
2018-11-22T10:25:49.540Z,938
2018-11-22T10:26:06.420Z,926
2018-11-22T10:26:23.016Z,924
2018-11-22T10:26:39.679Z,919
2018-11-22T10:26:56.419Z,898
2018-11-22T10:27:13.285Z,889
2018-11-22T10:27:29.843Z,928
2018-11-22T10:27:46.565Z,811
2018-11-22T10:28:03.292Z,794
2018-11-22T10:28:19.978Z,887
2018-11-22T10:28:36.618Z,856
2018-11-22T10:28:53.313Z,846
2018-11-22T10:29:10.417Z,834
2018-11-22T10:29:28.658Z,797
2018-11-22T10:29:45.537Z,765
2018-11-22T10:30:02.047Z,755
2018-11-22T10:30:19.838Z,771
2018-11-22T10:30:36.557Z,1402
2018-11-22T10:30:52.863Z,1290
2018-11-22T10:31:09.409Z,946
2018-11-22T10:31:26.573Z,959
2018-11-22T10:31:44.207Z,935
2018-11-22T10:32:00.788Z,822
2018-11-22T10:32:17.098Z,786
2018-11-22T10:32:33.650Z,756
2018-11-22T10:32:50.316Z,748
2018-11-22T10:33:07.046Z,746
2018-11-22T10:33:23.757Z,739
2018-11-22T10:33:40.396Z,740
2018-11-22T10:33:57.085Z,744
2018-11-22T10:34:13.758Z,741
2018-11-22T10:34:30.505Z,736
2018-11-22T10:34:47.198Z,740
2018-11-22T10:35:04.471Z,742
2018-11-22T10:35:22.450Z,743
2018-11-22T10:35:39.198Z,740
2018-11-22T10:35:55.531Z,736
2018-11-22T10:36:12.070Z,738
2018-11-22T10:36:28.861Z,768
2018-11-22T10:36:45.557Z,790
2018-11-22T10:37:02.221Z,770
2018-11-22T10:37:18.910Z,772
2018-11-22T10:37:36.033Z,797
2018-11-22T10:37:54.718Z,811
2018-11-22T10:38:11.972Z,802
2018-11-22T10:38:29.344Z,797
2018-11-22T10:38:46.305Z,796
2018-11-22T10:39:02.940Z,798
2018-11-22T10:39:35.506Z,803
2018-11-22T10:39:52.364Z,806
2018-11-22T10:40:08.970Z,809
2018-11-22T10:40:25.669Z,824
2018-11-22T10:40:42.570Z,839
2018-11-22T10:40:59.275Z,833
2018-11-22T10:41:16.023Z,840
2018-11-22T10:41:32.681Z,840
2018-11-22T10:41:49.389Z,847
2018-11-22T10:42:06.126Z,842
2018-11-22T10:42:23.452Z,844
2018-11-22T10:42:40.757Z,847
2018-11-22T10:42:57.587Z,852
2018-11-22T10:43:13.964Z,860
2018-11-22T10:43:30.591Z,856
2018-11-22T10:43:47.264Z,858
2018-11-22T10:44:04.000Z,858
2018-11-22T10:44:20.588Z,863
2018-11-22T10:44:37.301Z,863
2018-11-22T10:44:53.938Z,884
2018-11-22T10:45:10.628Z,933
2018-11-22T10:45:27.307Z,1456
2018-11-22T10:45:44.018Z,1104
2018-11-22T10:46:00.699Z,1115
2018-11-22T10:46:17.334Z,1452
2018-11-22T10:46:33.984Z,1120
2018-11-22T10:46:50.681Z,988
2018-11-22T10:47:07.388Z,1006
2018-11-22T10:47:24.025Z,968
2018-11-22T10:47:40.748Z,822
2018-11-22T10:47:57.394Z,863
2018-11-22T10:48:14.046Z,882
2018-11-22T10:48:30.820Z,892
2018-11-22T10:48:47.601Z,898
2018-11-22T10:49:04.298Z,898
2018-11-22T10:49:21.085Z,906
2018-11-22T10:49:37.778Z,908
2018-11-22T10:49:54.541Z,903
2018-11-22T10:50:11.297Z,900
2018-11-22T10:50:27.956Z,898
2018-11-22T10:50:44.707Z,892
2018-11-22T10:51:01.470Z,889
2018-11-22T10:51:18.190Z,883
2018-11-22T10:51:34.782Z,880
2018-11-22T10:51:51.571Z,877
2018-11-22T10:52:08.251Z,876
2018-11-22T10:52:24.967Z,875
2018-11-22T10:52:41.878Z,874
2018-11-22T10:52:58.486Z,872
2018-11-22T10:53:15.186Z,870
2018-11-22T10:53:31.872Z,871
2018-11-22T10:53:48.604Z,868
2018-11-22T10:54:05.336Z,866
2018-11-22T10:54:22.113Z,867
2018-11-22T10:54:38.899Z,869
2018-11-22T10:54:55.640Z,871
2018-11-22T10:55:12.390Z,873
2018-11-22T10:55:29.154Z,867
2018-11-22T10:55:45.860Z,867
2018-11-22T10:56:02.784Z,861
2018-11-22T10:56:19.537Z,864
2018-11-22T10:56:36.230Z,867
2018-11-22T10:56:52.933Z,866
2018-11-22T10:57:09.723Z,867
2018-11-22T10:57:26.464Z,865
2018-11-22T10:57:43.231Z,867
2018-11-22T10:57:59.907Z,862
2018-11-22T10:58:16.711Z,863
2018-11-22T10:58:33.239Z,863
2018-11-22T10:58:49.917Z,857
2018-11-22T10:59:06.622Z,863
2018-11-22T10:59:23.334Z,863
2018-11-22T10:59:39.984Z,859
2018-11-22T10:59:57.550Z,858
2018-11-22T11:00:14.235Z,857
2018-11-22T11:00:30.945Z,858
2018-11-22T11:00:47.655Z,861
2018-11-22T11:01:04.379Z,863
2018-11-22T11:01:21.084Z,861
2018-11-22T11:01:37.767Z,859
2018-11-22T11:01:54.481Z,857
2018-11-22T11:02:11.597Z,857
2018-11-22T11:02:28.168Z,855
2018-11-22T11:02:44.849Z,855
2018-11-22T11:03:01.511Z,852
2018-11-22T11:03:18.172Z,853
2018-11-22T11:03:34.897Z,848
2018-11-22T11:03:51.668Z,848
2018-11-22T11:04:08.397Z,850
2018-11-22T11:04:25.204Z,854
2018-11-22T11:04:41.851Z,854
2018-11-22T11:04:58.554Z,854
2018-11-22T11:05:15.222Z,854
2018-11-22T11:05:31.907Z,854
2018-11-22T11:05:48.667Z,852
2018-11-22T11:06:05.389Z,850
2018-11-22T11:06:22.092Z,848
2018-11-22T11:06:38.794Z,851
2018-11-22T11:06:55.594Z,850
2018-11-22T11:07:12.361Z,849
2018-11-22T11:07:29.103Z,848
2018-11-22T11:07:45.761Z,849
2018-11-22T11:08:02.437Z,853
2018-11-22T11:08:19.101Z,853
2018-11-22T11:08:35.779Z,853
2018-11-22T11:08:52.560Z,851
2018-11-22T11:09:09.232Z,850
2018-11-22T11:09:25.889Z,847
2018-11-22T11:09:42.709Z,850
2018-11-22T11:09:59.340Z,848
2018-11-22T11:10:16.046Z,848
2018-11-22T11:10:32.681Z,849
2018-11-22T11:10:49.343Z,850
2018-11-22T11:11:06.074Z,847
2018-11-22T11:11:22.728Z,847
2018-11-22T11:11:39.473Z,857
2018-11-22T11:11:56.073Z,861
2018-11-22T11:12:12.731Z,853
2018-11-22T11:12:30.632Z,850
2018-11-22T11:12:46.917Z,845
2018-11-22T11:13:03.172Z,848
2018-11-22T11:13:19.555Z,848
2018-11-22T11:13:36.184Z,849
2018-11-22T11:13:52.860Z,849
2018-11-22T11:14:09.568Z,844
2018-11-22T11:14:26.285Z,839
2018-11-22T11:14:42.976Z,838
2018-11-22T11:14:59.625Z,836
2018-11-22T11:15:16.318Z,836
2018-11-22T11:15:32.937Z,842
2018-11-22T11:15:49.601Z,840
2018-11-22T11:16:06.329Z,840
2018-11-22T11:16:23.034Z,838
2018-11-22T11:16:39.700Z,839
2018-11-22T11:16:56.404Z,843
2018-11-22T11:17:13.095Z,842
2018-11-22T11:17:29.796Z,842
2018-11-22T11:17:46.508Z,843
2018-11-22T11:18:03.223Z,843
2018-11-22T11:18:19.867Z,842
2018-11-22T11:18:36.588Z,847
2018-11-22T11:18:53.233Z,846
2018-11-22T11:19:09.946Z,844
2018-11-22T11:19:26.725Z,841
2018-11-22T11:19:43.462Z,839
2018-11-22T11:20:00.202Z,837
2018-11-22T11:20:16.904Z,838
2018-11-22T11:20:33.578Z,837
2018-11-22T11:20:50.322Z,833
2018-11-22T11:21:23.082Z,836
2018-11-22T11:21:39.382Z,831
2018-11-22T11:21:55.638Z,829
2018-11-22T11:22:11.979Z,828
2018-11-22T11:22:28.251Z,828
2018-11-22T11:22:44.670Z,849
2018-11-22T11:23:01.188Z,856
2018-11-22T11:23:17.457Z,856
2018-11-22T11:23:33.728Z,852
2018-11-22T11:23:50.031Z,840
2018-11-22T11:24:06.400Z,846
2018-11-22T11:24:23.180Z,839
2018-11-22T11:24:42.803Z,843
2018-11-22T11:25:00.028Z,841
2018-11-22T11:25:16.312Z,838
2018-11-22T11:25:32.606Z,840
2018-11-22T11:25:48.871Z,836
2018-11-22T11:26:05.131Z,837
2018-11-22T11:26:21.596Z,837
2018-11-22T11:26:38.049Z,838
2018-11-22T11:26:54.388Z,837
2018-11-22T11:27:10.753Z,837
2018-11-22T11:27:26.999Z,832
2018-11-22T11:27:43.281Z,832
2018-11-22T11:27:59.545Z,831
2018-11-22T11:28:15.788Z,828
2018-11-22T11:28:32.108Z,829
2018-11-22T11:28:48.378Z,831
2018-11-22T11:29:04.626Z,836
2018-11-22T11:29:20.856Z,837
2018-11-22T11:29:37.103Z,838
2018-11-22T11:29:53.333Z,838
2018-11-22T11:30:09.604Z,839
2018-11-22T11:30:25.873Z,839
2018-11-22T11:30:42.135Z,841
2018-11-22T11:30:58.385Z,843
2018-11-22T11:31:14.841Z,841
2018-11-22T11:31:31.549Z,840
2018-11-22T11:31:48.192Z,836
2018-11-22T11:32:04.965Z,838
2018-11-22T11:32:21.664Z,839
2018-11-22T11:32:38.290Z,839
2018-11-22T11:32:55.037Z,834
2018-11-22T11:33:11.668Z,838
2018-11-22T11:33:28.362Z,837
2018-11-22T11:33:45.184Z,837
2018-11-22T11:34:01.873Z,839
2018-11-22T11:34:18.513Z,838
2018-11-22T11:34:35.228Z,838
2018-11-22T11:34:51.921Z,834
2018-11-22T11:35:08.545Z,834
2018-11-22T11:35:25.228Z,829
2018-11-22T11:35:41.927Z,820
2018-11-22T11:35:58.598Z,817
2018-11-22T11:36:19.279Z,817
2018-11-22T11:36:35.929Z,822
2018-11-22T11:36:52.614Z,818
2018-11-22T11:37:09.294Z,819
2018-11-22T11:37:25.975Z,823
2018-11-22T11:37:42.689Z,821
2018-11-22T11:37:59.375Z,823
2018-11-22T11:38:16.084Z,822
2018-11-22T11:38:32.821Z,824
2018-11-22T11:38:49.510Z,823
2018-11-22T11:39:06.217Z,822
2018-11-22T11:39:22.915Z,823
2018-11-22T11:39:39.604Z,825
2018-11-22T11:40:02.080Z,842
2018-11-22T11:40:18.781Z,823
2018-11-22T11:40:35.407Z,825
2018-11-22T11:40:52.071Z,822
2018-11-22T11:41:08.776Z,826
2018-11-22T11:41:25.489Z,824
2018-11-22T11:41:42.184Z,822
2018-11-22T11:41:58.752Z,827
2018-11-22T11:42:15.461Z,828
2018-11-22T11:42:32.161Z,828
2018-11-22T11:42:48.848Z,834
2018-11-22T11:43:05.536Z,831
2018-11-22T11:43:22.222Z,828
2018-11-22T11:43:38.858Z,827
2018-11-22T11:43:55.570Z,827
2018-11-22T11:44:12.194Z,824
2018-11-22T11:44:28.880Z,826
2018-11-22T11:44:45.554Z,825
2018-11-22T11:45:02.182Z,827
2018-11-22T11:45:18.885Z,826
2018-11-22T11:45:35.530Z,825
2018-11-22T11:45:52.189Z,825
2018-11-22T11:46:08.851Z,825
2018-11-22T11:46:25.515Z,827
2018-11-22T11:46:42.287Z,827
2018-11-22T11:46:58.952Z,828
2018-11-22T11:47:15.572Z,828
2018-11-22T11:47:32.253Z,829
2018-11-22T11:47:48.917Z,832
2018-11-22T11:48:05.597Z,830
2018-11-22T11:48:22.306Z,820
2018-11-22T11:48:38.953Z,818
2018-11-22T11:48:55.616Z,822
2018-11-22T11:49:12.299Z,827
2018-11-22T11:49:28.970Z,832
2018-11-22T11:49:45.645Z,823
2018-11-22T11:50:02.350Z,825
2018-11-22T11:50:19.836Z,829
2018-11-22T11:50:36.508Z,832
2018-11-22T11:50:53.005Z,827
2018-11-22T11:51:09.746Z,827
2018-11-22T11:51:26.616Z,822
2018-11-22T11:51:43.217Z,823
2018-11-22T11:51:59.964Z,824
2018-11-22T11:52:16.575Z,820
2018-11-22T11:52:33.283Z,821
2018-11-22T11:52:49.996Z,821
2018-11-22T11:53:06.674Z,821
2018-11-22T11:53:43.032Z,820
2018-11-22T11:53:48.700Z,819
2018-11-22T11:54:05.463Z,820
2018-11-22T11:54:22.240Z,821
2018-11-22T11:54:38.890Z,819
2018-11-22T11:54:55.667Z,821
2018-11-22T11:55:12.341Z,823
2018-11-22T11:55:28.986Z,824
2018-11-22T11:55:45.672Z,824
2018-11-22T11:56:02.333Z,822
2018-11-22T11:56:20.128Z,823
2018-11-22T11:56:36.441Z,824
2018-11-22T11:56:52.712Z,825
2018-11-22T11:57:09.063Z,821
2018-11-22T11:57:25.728Z,818
2018-11-22T11:57:42.377Z,819
2018-11-22T11:57:59.092Z,817
2018-11-22T11:58:15.708Z,819
2018-11-22T11:58:32.395Z,821
2018-11-22T11:58:49.082Z,825
2018-11-22T11:59:05.800Z,824
2018-11-22T11:59:22.442Z,822
2018-11-22T11:59:39.167Z,821
2018-11-22T11:59:55.830Z,820
2018-11-22T12:00:12.669Z,819
2018-11-22T12:00:29.370Z,822
2018-11-22T12:00:46.096Z,825
2018-11-22T12:01:02.866Z,824
2018-11-22T12:01:19.495Z,824
2018-11-22T12:01:36.211Z,823
2018-11-22T12:01:52.929Z,824
2018-11-22T12:02:15.988Z,824
2018-11-22T12:02:32.573Z,823
2018-11-22T12:02:49.335Z,824
2018-11-22T12:03:06.001Z,822
2018-11-22T12:03:22.644Z,819
2018-11-22T12:03:39.338Z,853
2018-11-22T12:03:56.004Z,1504
2018-11-22T12:04:12.717Z,1434
2018-11-22T12:04:29.308Z,1256
2018-11-22T12:04:46.061Z,1037
2018-11-22T12:05:02.741Z,943
2018-11-22T12:05:19.398Z,904
2018-11-22T12:05:36.018Z,878
2018-11-22T12:05:52.731Z,883
2018-11-22T12:06:09.428Z,880
2018-11-22T12:06:26.072Z,889
2018-11-22T12:06:42.755Z,890
2018-11-22T12:06:59.405Z,890
2018-11-22T12:07:16.166Z,1023
2018-11-22T12:07:32.866Z,1049
2018-11-22T12:07:49.527Z,1000
2018-11-22T12:08:06.160Z,934
2018-11-22T12:08:22.912Z,936
2018-11-22T12:08:39.568Z,938
2018-11-22T12:08:56.309Z,947
2018-11-22T12:09:12.953Z,975
2018-11-22T12:09:29.631Z,989
2018-11-22T12:09:46.356Z,975
2018-11-22T12:10:03.116Z,974
2018-11-22T12:10:19.802Z,983
2018-11-22T12:10:36.408Z,971
2018-11-22T12:10:53.129Z,1054
2018-11-22T12:11:09.785Z,1702
2018-11-22T12:11:26.453Z,1689
2018-11-22T12:11:43.215Z,1675
2018-11-22T12:11:59.916Z,1634
2018-11-22T12:12:16.661Z,1898
2018-11-22T12:12:33.303Z,1604
2018-11-22T12:12:49.972Z,1505
2018-11-22T12:13:06.620Z,1288
2018-11-22T12:13:23.361Z,1296
2018-11-22T12:13:39.993Z,1354
2018-11-22T12:13:56.647Z,1240
2018-11-22T12:14:13.323Z,1199
2018-11-22T12:14:30.015Z,1178
2018-11-22T12:14:46.769Z,1131
2018-11-22T12:15:03.496Z,1067
2018-11-22T12:15:20.157Z,1038
2018-11-22T12:15:36.849Z,1016
2018-11-22T12:15:53.536Z,1022
2018-11-22T12:16:10.529Z,1015
2018-11-22T12:16:27.355Z,1020
2018-11-22T12:16:44.023Z,1019
2018-11-22T12:17:00.725Z,1022
2018-11-22T12:17:17.400Z,1015
2018-11-22T12:17:34.107Z,1013
2018-11-22T12:17:50.819Z,1017
2018-11-22T12:18:08.400Z,1017
2018-11-22T12:18:25.011Z,1017
2018-11-22T12:18:41.742Z,1013
2018-11-22T12:18:58.518Z,1037
2018-11-22T12:19:15.189Z,1052
2018-11-22T12:19:31.892Z,1061
2018-11-22T12:19:48.573Z,1052
2018-11-22T12:20:05.308Z,1045
2018-11-22T12:20:22.039Z,1045
2018-11-22T12:20:38.688Z,1045
2018-11-22T12:20:55.449Z,1048
2018-11-22T12:21:12.057Z,1058
2018-11-22T12:21:28.784Z,1053
2018-11-22T12:21:45.587Z,1057
2018-11-22T12:22:02.215Z,1214
2018-11-22T12:22:18.924Z,1150
2018-11-22T12:22:35.594Z,1157
2018-11-22T12:22:52.341Z,1152
2018-11-22T12:23:09.084Z,1138
2018-11-22T12:23:25.709Z,1123
2018-11-22T12:23:42.440Z,1109
2018-11-22T12:23:59.104Z,1099
2018-11-22T12:24:15.864Z,1092
2018-11-22T12:24:32.562Z,1097
2018-11-22T12:24:49.196Z,1125
2018-11-22T12:25:05.888Z,1411
2018-11-22T12:25:22.617Z,1302
2018-11-22T12:25:39.308Z,1487
2018-11-22T12:25:56.015Z,1350
2018-11-22T12:26:12.707Z,1204
2018-11-22T12:26:29.326Z,1140
2018-11-22T12:26:46.065Z,1128
2018-11-22T12:27:02.907Z,1128
2018-11-22T12:27:19.492Z,1127
2018-11-22T12:27:36.203Z,1133
2018-11-22T12:27:52.907Z,1139
2018-11-22T12:28:09.610Z,1139
2018-11-22T12:28:26.365Z,1147
2018-11-22T12:28:43.062Z,1144
2018-11-22T12:28:59.726Z,1141
2018-11-22T12:29:16.618Z,1178
2018-11-22T12:29:33.153Z,1191
2018-11-22T12:29:49.809Z,1191
2018-11-22T12:30:06.511Z,1176
2018-11-22T12:30:23.268Z,1170
2018-11-22T12:30:39.942Z,1242
2018-11-22T12:30:56.684Z,1214
2018-11-22T12:31:13.350Z,1204
2018-11-22T12:31:30.033Z,2115
2018-11-22T12:31:46.775Z,1754
2018-11-22T12:32:03.724Z,1372
2018-11-22T12:32:20.413Z,1303
2018-11-22T12:32:37.124Z,1206
2018-11-22T12:32:53.811Z,1171
2018-11-22T12:33:10.512Z,1166
2018-11-22T12:33:27.203Z,1170
2018-11-22T12:33:44.152Z,1165
2018-11-22T12:34:00.900Z,1483
2018-11-22T12:34:17.621Z,1436
2018-11-22T12:34:34.270Z,1441
2018-11-22T12:34:51.272Z,1315
2018-11-22T12:35:07.799Z,1252
2018-11-22T12:35:24.803Z,1233
2018-11-22T12:35:41.487Z,1298
2018-11-22T12:35:58.176Z,1240
2018-11-22T12:36:15.490Z,1262
2018-11-22T12:36:32.247Z,1340
2018-11-22T12:36:48.886Z,1399
2018-11-22T12:37:05.614Z,1340
2018-11-22T12:37:22.395Z,1431
2018-11-22T12:37:44.821Z,1595
2018-11-22T12:38:01.580Z,1390
2018-11-22T12:38:18.283Z,1364
2018-11-22T12:38:35.297Z,1275
2018-11-22T12:38:51.938Z,1278
2018-11-22T12:39:08.612Z,1241
2018-11-22T12:39:25.301Z,1237
2018-11-22T12:39:41.996Z,1226
2018-11-22T12:39:58.663Z,1224
2018-11-22T12:40:15.360Z,1598
2018-11-22T12:40:32.018Z,1567
2018-11-22T12:40:48.729Z,1750
2018-11-22T12:41:05.481Z,1668
2018-11-22T12:41:22.160Z,1747
2018-11-22T12:41:38.894Z,1747
2018-11-22T12:41:55.637Z,1877
2018-11-22T12:42:12.317Z,1556
2018-11-22T12:42:29.004Z,1842
2018-11-22T12:42:45.797Z,1708
2018-11-22T12:43:02.634Z,1829
2018-11-22T12:43:19.262Z,1745
2018-11-22T12:43:35.915Z,1821
2018-11-22T12:43:52.653Z,1855
2018-11-22T12:44:09.893Z,1471
2018-11-22T12:44:26.374Z,1385
2018-11-22T12:44:43.054Z,1359
2018-11-22T12:44:59.729Z,1345
2018-11-22T13:48:34.463Z,1257
2018-11-22T14:55:15.885Z,1593
2018-11-22T14:55:31.768Z,1447
2018-11-22T14:55:47.662Z,1506
2018-11-22T14:56:03.516Z,1511
2018-11-22T14:56:19.389Z,1527
2018-11-22T14:56:35.322Z,1541
2018-11-22T14:56:51.210Z,1531
2018-11-22T14:57:07.115Z,1537
2018-11-22T14:57:22.948Z,1537
2018-11-22T14:57:38.814Z,1535
2018-11-22T14:57:54.678Z,1548
2018-11-22T14:58:10.539Z,1572
2018-11-22T14:58:26.432Z,1523
2018-11-22T14:58:42.286Z,1549
2018-11-22T14:58:58.182Z,1552
2018-11-22T14:59:14.135Z,1549
2018-11-22T14:59:30.144Z,1529